Oak Grove, Alabama
Current Conditions -  °F | °C
As of 12:35 AM on Wednesday 26 Nov 2014 (Local Time) from KSCD Reporting Station
Overcast Overcast  
Wind Chill: 46°   Ceiling: 10000
Heat Index: 46°   Visibility: 10mi
Dew Point: 31°   Wind: 0mph
Humidity: 55%   Direction: NA
Pressure: 30.08"   Gusts: NA
Location:  33.19°N, 86.2476°W
Report Text: KSCD 260635Z AUTO 00000KT 10SM OVC100 08/00 A3008 RMK AO2 T00801005
Loading
Personal Weather Stations






























Interactive Weather Map New forecast layout! Learn more

10-Day Weather Forecast

Advertisements
Track Severe Weather on mobile